createdAt,value
2022-08-24T00:00:08.861Z,17.84
2022-08-24T00:02:35.314Z,17.84
2022-08-24T00:05:01.863Z,17.89
2022-08-24T00:07:28.481Z,17.95
2022-08-24T00:09:55.348Z,17.99
2022-08-24T00:12:21.962Z,17.97
2022-08-24T00:14:49.403Z,17.97
2022-08-24T00:17:16.771Z,18.03
2022-08-24T00:19:43.724Z,18.08
2022-08-24T00:22:10.074Z,18.05
2022-08-24T00:24:36.469Z,18.04
2022-08-24T00:27:03.215Z,17.97
2022-08-24T00:29:29.608Z,17.98
2022-08-24T00:31:55.972Z,18.02
2022-08-24T00:34:22.407Z,18.06
2022-08-24T00:36:48.823Z,18.02
2022-08-24T00:39:15.367Z,17.94
2022-08-24T00:41:43.728Z,17.96
2022-08-24T00:44:11.626Z,17.96
2022-08-24T00:46:59.025Z,17.88
2022-08-24T00:49:49.690Z,17.89
2022-08-24T00:52:21.311Z,17.87
2022-08-24T00:54:52.867Z,17.85
2022-08-24T00:57:22.474Z,17.82
2022-08-24T00:59:55.468Z,17.79
2022-08-24T01:02:26.824Z,17.85
2022-08-24T01:05:06.650Z,17.73
2022-08-24T01:07:34.075Z,17.74
2022-08-24T01:10:06.961Z,17.69
2022-08-24T01:12:35.903Z,17.71
2022-08-24T01:15:04.660Z,17.66
2022-08-24T01:17:50.090Z,17.67
2022-08-24T01:20:17.889Z,17.67
2022-08-24T01:23:06.897Z,17.63
2022-08-24T01:25:35.933Z,17.56
2022-08-24T01:28:08.701Z,17.53
2022-08-24T01:30:36.844Z,17.51
2022-08-24T01:33:07.366Z,17.47
2022-08-24T01:35:36.449Z,17.50
2022-08-24T01:38:07.470Z,17.48
2022-08-24T01:40:38.659Z,17.43
2022-08-24T01:43:07.411Z,17.40
2022-08-24T01:45:34.491Z,17.35
2022-08-24T01:48:02.945Z,17.29
2022-08-24T01:50:29.711Z,17.26
2022-08-24T01:53:05.312Z,17.28
2022-08-24T01:55:32.375Z,17.20
2022-08-24T01:57:58.884Z,17.24
2022-08-24T02:00:25.962Z,17.17
2022-08-24T02:02:52.411Z,17.22
2022-08-24T02:05:19.000Z,17.22
2022-08-24T02:07:45.829Z,17.15
2022-08-24T02:10:14.485Z,17.12
2022-08-24T02:12:42.721Z,17.08
2022-08-24T02:15:10.621Z,17.09
2022-08-24T02:17:37.407Z,17.05
2022-08-24T02:20:05.929Z,17.06
2022-08-24T02:22:32.513Z,17.01
2022-08-24T02:24:58.904Z,17.00
2022-08-24T02:27:25.271Z,16.95
2022-08-24T02:29:51.603Z,16.96
2022-08-24T02:32:17.947Z,16.99
2022-08-24T02:34:44.345Z,16.99
2022-08-24T02:37:10.909Z,17.04
2022-08-24T02:39:37.459Z,17.01
2022-08-24T02:42:03.986Z,16.93
2022-08-24T02:44:30.307Z,16.96
2022-08-24T02:46:56.796Z,16.86
2022-08-24T02:49:23.856Z,16.81
2022-08-24T02:51:50.501Z,16.78
2022-08-24T02:54:17.898Z,16.76
2022-08-24T02:56:45.592Z,16.69
2022-08-24T02:59:12.260Z,16.68
2022-08-24T03:01:38.642Z,16.69
2022-08-24T03:04:05.520Z,16.61
2022-08-24T03:06:32.702Z,16.62
2022-08-24T03:08:59.386Z,16.58
2022-08-24T03:11:28.320Z,16.56
2022-08-24T03:13:58.983Z,16.60
2022-08-24T03:16:27.651Z,16.59
2022-08-24T03:18:55.413Z,16.48
2022-08-24T03:21:21.775Z,16.52
2022-08-24T03:23:48.230Z,16.48
2022-08-24T03:26:14.690Z,16.46
2022-08-24T03:28:41.434Z,16.50
2022-08-24T03:31:11.041Z,16.41
2022-08-24T03:33:37.562Z,16.46
2022-08-24T03:36:04.338Z,16.47
2022-08-24T03:38:30.764Z,16.40
2022-08-24T03:40:57.474Z,16.36
2022-08-24T03:43:42.295Z,16.38
2022-08-24T03:46:09.256Z,16.35
2022-08-24T03:48:36.192Z,16.36
2022-08-24T03:51:02.894Z,16.36
2022-08-24T03:53:29.330Z,16.45
2022-08-24T03:55:55.658Z,16.51
2022-08-24T03:58:22.010Z,16.45
2022-08-24T04:00:49.053Z,16.35
2022-08-24T04:03:15.545Z,16.34
2022-08-24T04:05:42.534Z,16.37
2022-08-24T04:08:09.586Z,16.36
2022-08-24T04:10:36.082Z,16.32
2022-08-24T04:13:02.654Z,16.32
2022-08-24T04:15:31.591Z,16.27
2022-08-24T04:17:58.249Z,16.26
2022-08-24T04:20:25.704Z,16.27
2022-08-24T04:22:52.172Z,16.29
2022-08-24T04:25:24.701Z,16.28
2022-08-24T04:27:51.241Z,16.19
2022-08-24T04:30:17.807Z,16.17
2022-08-24T04:32:44.183Z,16.16
2022-08-24T04:35:10.690Z,16.11
2022-08-24T04:37:37.028Z,16.15
2022-08-24T04:40:04.922Z,16.11
2022-08-24T04:42:31.575Z,16.07
2022-08-24T04:44:59.965Z,16.02
2022-08-24T04:47:26.428Z,16.01
2022-08-24T04:49:52.789Z,16.04
2022-08-24T04:52:19.116Z,16.06
2022-08-24T04:54:45.464Z,16.02
2022-08-24T04:57:15.973Z,16.03
2022-08-24T04:59:44.244Z,16.09
2022-08-24T05:02:10.968Z,16.11
2022-08-24T05:04:37.462Z,16.18
2022-08-24T05:07:04.199Z,16.34
2022-08-24T05:09:30.548Z,16.33
2022-08-24T05:11:58.106Z,16.37
2022-08-24T05:14:28.479Z,16.45
2022-08-24T05:16:55.341Z,16.46
2022-08-24T05:19:23.627Z,16.62
2022-08-24T05:21:50.144Z,16.71
2022-08-24T05:24:17.007Z,16.87
2022-08-24T05:26:43.447Z,17.05
2022-08-24T05:29:09.973Z,17.22
2022-08-24T05:31:36.818Z,17.31
2022-08-24T05:34:04.382Z,17.28
2022-08-24T05:36:33.478Z,17.32
2022-08-24T05:39:02.378Z,17.45
2022-08-24T05:41:29.246Z,17.66
2022-08-24T05:43:55.945Z,17.70
2022-08-24T05:46:22.485Z,17.86
2022-08-24T05:48:52.728Z,17.94
2022-08-24T05:51:20.012Z,17.97
2022-08-24T05:53:46.444Z,17.97
2022-08-24T05:56:15.362Z,17.93
2022-08-24T05:58:41.855Z,17.87
2022-08-24T06:01:11.308Z,17.96
2022-08-24T06:03:38.809Z,18.11
2022-08-24T06:06:07.556Z,18.21
2022-08-24T06:08:41.491Z,18.25
2022-08-24T06:11:09.542Z,18.35
2022-08-24T06:13:36.352Z,18.39
2022-08-24T06:16:20.754Z,18.27
2022-08-24T06:18:49.561Z,18.35
2022-08-24T06:21:19.369Z,18.26
2022-08-24T06:23:48.171Z,18.36
2022-08-24T06:26:33.469Z,18.40
2022-08-24T06:29:03.116Z,18.44
2022-08-24T06:31:34.467Z,18.42
2022-08-24T06:34:11.226Z,18.49
2022-08-24T06:36:39.970Z,18.61
2022-08-24T06:39:08.085Z,18.66
2022-08-24T06:41:37.400Z,18.78
2022-08-24T06:44:04.915Z,18.82
2022-08-24T06:46:33.073Z,18.94
2022-08-24T06:49:00.023Z,18.98
2022-08-24T06:51:26.580Z,19.00
2022-08-24T06:53:56.017Z,19.04
2022-08-24T06:56:22.447Z,19.25
2022-08-24T06:58:48.861Z,19.31
2022-08-24T07:01:19.211Z,19.40
2022-08-24T07:03:46.756Z,19.42
2022-08-24T07:06:14.296Z,19.42
2022-08-24T07:08:42.891Z,19.53
2022-08-24T07:11:10.628Z,19.79
2022-08-24T07:13:37.091Z,19.95
2022-08-24T07:16:04.624Z,19.84
2022-08-24T07:18:31.077Z,20.01
2022-08-24T07:21:01.141Z,20.22
2022-08-24T07:23:42.273Z,20.35
2022-08-24T07:26:21.006Z,20.35
2022-08-24T07:28:52.896Z,20.38
2022-08-24T07:31:20.884Z,20.43
2022-08-24T07:33:47.434Z,20.34
2022-08-24T07:36:22.444Z,20.39
2022-08-24T07:38:52.025Z,20.47
2022-08-24T07:41:43.474Z,20.42
2022-08-24T07:44:04.931Z,20.66
2022-08-24T07:46:32.460Z,20.83
2022-08-24T07:49:11.502Z,20.80
2022-08-24T07:51:43.762Z,21.03
2022-08-24T07:54:13.538Z,21.08
2022-08-24T07:56:41.740Z,21.19
2022-08-24T07:59:12.844Z,21.22
2022-08-24T08:01:40.797Z,21.22
2022-08-24T08:04:07.763Z,21.30
2022-08-24T08:06:34.357Z,21.39
2022-08-24T08:09:02.572Z,21.57
2022-08-24T08:11:28.915Z,21.67
2022-08-24T08:13:55.278Z,21.77
2022-08-24T08:16:21.755Z,22.02
2022-08-24T08:18:52.361Z,22.04
2022-08-24T08:21:50.796Z,21.97
2022-08-24T08:24:18.051Z,22.07
2022-08-24T08:26:52.032Z,22.24
2022-08-24T08:29:19.356Z,22.27
2022-08-24T08:31:46.414Z,22.30
2022-08-24T08:34:13.473Z,22.09
2022-08-24T08:36:40.905Z,22.27
2022-08-24T08:39:13.040Z,22.43
2022-08-24T08:42:01.985Z,22.62
2022-08-24T08:45:00.553Z,22.72
2022-08-24T08:47:59.067Z,22.50
2022-08-24T08:50:33.630Z,22.82
2022-08-24T08:53:06.318Z,22.90
2022-08-24T08:55:38.655Z,22.99
2022-08-24T08:58:06.252Z,22.74
2022-08-24T09:00:44.805Z,22.99
2022-08-24T09:03:33.648Z,23.01
2022-08-24T09:06:04.792Z,23.05
2022-08-24T09:08:57.542Z,22.96
2022-08-24T09:11:36.182Z,23.19
2022-08-24T09:14:31.006Z,23.48
2022-08-24T09:17:12.979Z,23.31
2022-08-24T09:20:17.580Z,23.26
2022-08-24T09:22:49.959Z,23.28
2022-08-24T09:25:35.999Z,23.51
2022-08-24T09:28:33.647Z,23.51
2022-08-24T09:31:15.016Z,23.75
2022-08-24T09:33:52.075Z,23.87
2022-08-24T09:36:33.510Z,23.97
2022-08-24T09:39:29.832Z,24.22
2022-08-24T09:42:29.336Z,24.09
2022-08-24T09:45:32.909Z,24.17
2022-08-24T09:48:31.364Z,24.19
2022-08-24T09:51:42.086Z,24.23
2022-08-24T09:54:46.921Z,24.13
2022-08-24T09:57:20.497Z,24.32
2022-08-24T09:59:49.916Z,24.18
2022-08-24T10:02:47.060Z,24.15
2022-08-24T10:05:27.525Z,24.00
2022-08-24T10:08:04.937Z,24.42
2022-08-24T10:10:57.218Z,24.25
2022-08-24T10:13:34.319Z,24.18
2022-08-24T10:16:00.792Z,24.28
2022-08-24T10:18:36.026Z,24.29
2022-08-24T10:21:37.044Z,24.59
2022-08-24T10:24:34.580Z,24.52
2022-08-24T10:27:38.190Z,24.50
2022-08-24T10:30:33.726Z,24.55
2022-08-24T10:33:14.896Z,24.73
2022-08-24T10:36:04.424Z,24.49
2022-08-24T10:39:03.756Z,24.68
2022-08-24T10:41:51.496Z,24.87
2022-08-24T10:44:46.002Z,24.66
2022-08-24T10:47:22.557Z,24.65
2022-08-24T10:50:10.756Z,24.86
2022-08-24T10:53:04.988Z,25.12
2022-08-24T10:55:34.524Z,25.21
2022-08-24T10:58:28.591Z,25.36
2022-08-24T11:00:55.599Z,25.34
2022-08-24T11:03:28.366Z,25.20
2022-08-24T11:05:56.964Z,25.30
2022-08-24T11:08:25.518Z,25.14
2022-08-24T11:11:11.416Z,25.39
2022-08-24T11:13:51.384Z,25.52
2022-08-24T11:16:36.140Z,25.55
2022-08-24T11:19:09.651Z,25.69
2022-08-24T11:21:41.634Z,25.96
2022-08-24T11:24:13.519Z,26.11
2022-08-24T11:26:57.996Z,26.17
2022-08-24T11:29:50.607Z,25.85
2022-08-24T11:32:42.226Z,25.95
2022-08-24T11:35:34.684Z,26.07
2022-08-24T11:38:16.846Z,26.08
2022-08-24T11:40:50.201Z,26.07
2022-08-24T11:43:28.926Z,26.34
2022-08-24T11:46:07.875Z,26.25
2022-08-24T11:48:53.240Z,26.53
2022-08-24T11:51:35.494Z,26.74
2022-08-24T11:54:19.202Z,27.01
2022-08-24T11:57:00.836Z,26.69
2022-08-24T11:59:45.371Z,26.45
2022-08-24T12:02:21.009Z,26.62
2022-08-24T12:05:02.607Z,26.44
2022-08-24T12:07:42.375Z,26.33
2022-08-24T12:10:28.546Z,26.57
2022-08-24T12:13:40.390Z,26.55
2022-08-24T12:16:15.703Z,26.53
2022-08-24T12:19:00.591Z,26.81
2022-08-24T12:21:32.557Z,26.69
2022-08-24T12:24:03.771Z,26.85
2022-08-24T12:26:40.165Z,26.89
2022-08-24T12:29:16.039Z,26.85
2022-08-24T12:31:49.758Z,26.96
2022-08-24T12:34:18.943Z,26.82
2022-08-24T12:36:57.409Z,26.86
2022-08-24T12:39:29.690Z,26.90
2022-08-24T12:42:17.443Z,26.55
2022-08-24T12:45:06.496Z,26.45
2022-08-24T12:48:11.519Z,26.57
2022-08-24T12:50:49.007Z,26.73
2022-08-24T12:53:24.351Z,26.80
2022-08-24T12:56:09.452Z,26.72
2022-08-24T12:58:56.396Z,26.62
2022-08-24T13:01:29.642Z,26.75
2022-08-24T13:04:15.567Z,27.12
2022-08-24T13:06:55.298Z,27.31
2022-08-24T13:09:39.118Z,27.23
2022-08-24T13:12:30.421Z,27.17
2022-08-24T13:15:31.002Z,27.03
2022-08-24T13:18:17.609Z,27.21
2022-08-24T13:20:44.375Z,27.13
2022-08-24T13:23:10.770Z,27.16
2022-08-24T13:26:02.025Z,27.13
2022-08-24T13:28:38.478Z,27.19
2022-08-24T13:31:23.389Z,27.41
2022-08-24T13:34:14.563Z,27.20
2022-08-24T13:37:03.408Z,27.27
2022-08-24T13:39:48.935Z,27.32
2022-08-24T13:42:28.129Z,27.45
2022-08-24T13:45:31.755Z,27.58
2022-08-24T13:48:33.454Z,27.46
2022-08-24T13:51:20.441Z,27.41
2022-08-24T13:54:19.922Z,27.44
2022-08-24T13:57:20.279Z,27.40
2022-08-24T14:00:12.635Z,27.66
2022-08-24T14:03:06.525Z,27.54
2022-08-24T14:05:46.447Z,27.44
2022-08-24T14:08:27.761Z,27.55
2022-08-24T14:11:00.132Z,27.55
2022-08-24T14:13:52.255Z,27.43
2022-08-24T14:17:19.936Z,27.58
2022-08-24T14:20:27.935Z,27.63
2022-08-24T14:23:21.441Z,27.60
2022-08-24T14:25:49.185Z,27.47
2022-08-24T14:28:41.658Z,27.71
2022-08-24T14:31:29.474Z,27.58
2022-08-24T14:34:25.077Z,27.56
2022-08-24T14:36:59.216Z,27.68
2022-08-24T14:40:17.233Z,27.53
2022-08-24T14:43:15.931Z,27.39
2022-08-24T14:46:19.208Z,27.48
2022-08-24T14:48:59.255Z,27.16
2022-08-24T14:51:54.148Z,27.24
2022-08-24T14:54:51.416Z,27.32
2022-08-24T14:57:28.031Z,27.19
2022-08-24T15:00:15.094Z,27.23
2022-08-24T15:03:06.312Z,27.21
2022-08-24T15:05:32.721Z,27.41
2022-08-24T15:08:03.098Z,27.29
2022-08-24T15:10:39.380Z,27.10
2022-08-24T15:13:27.777Z,27.30
2022-08-24T15:16:37.507Z,27.30
2022-08-24T15:19:19.348Z,27.26
2022-08-24T15:22:01.305Z,27.08
2022-08-24T15:24:44.849Z,27.09
2022-08-24T15:27:42.187Z,27.11
2022-08-24T15:30:28.773Z,27.07
2022-08-24T15:33:09.544Z,27.02
2022-08-24T15:35:42.976Z,26.86
2022-08-24T15:38:20.338Z,26.79
2022-08-24T15:40:48.856Z,26.82
2022-08-24T15:43:15.346Z,26.78
2022-08-24T15:45:51.430Z,26.79
2022-08-24T15:48:23.901Z,26.80
2022-08-24T15:50:51.732Z,26.79
2022-08-24T15:53:36.448Z,26.68
2022-08-24T15:56:35.669Z,26.59
2022-08-24T15:59:11.993Z,26.57
2022-08-24T16:01:57.553Z,26.55
2022-08-24T16:04:41.395Z,26.45
2022-08-24T16:07:16.157Z,26.36
2022-08-24T16:09:44.467Z,26.34
2022-08-24T16:12:16.404Z,26.36
2022-08-24T16:14:48.383Z,26.42
2022-08-24T16:17:28.262Z,26.26
2022-08-24T16:19:58.244Z,26.20
2022-08-24T16:22:33.106Z,26.18
2022-08-24T16:25:18.223Z,26.26
2022-08-24T16:28:11.621Z,26.25
2022-08-24T16:30:47.080Z,26.16
2022-08-24T16:33:34.840Z,26.18
2022-08-24T16:36:14.170Z,26.16
2022-08-24T16:38:46.849Z,26.06
2022-08-24T16:41:16.667Z,26.09
2022-08-24T16:43:43.247Z,26.11
2022-08-24T16:46:10.823Z,25.99
2022-08-24T16:48:37.315Z,25.96
2022-08-24T16:51:04.043Z,25.89
2022-08-24T16:53:30.608Z,25.87
2022-08-24T16:55:58.194Z,25.85
2022-08-24T16:58:30.134Z,25.83
2022-08-24T17:00:56.639Z,25.81
2022-08-24T17:03:23.113Z,25.76
2022-08-24T17:05:49.611Z,25.75
2022-08-24T17:08:16.060Z,25.70
2022-08-24T17:10:43.781Z,25.67
2022-08-24T17:13:14.211Z,25.64
2022-08-24T17:15:53.682Z,25.60
2022-08-24T17:18:20.483Z,25.57
2022-08-24T17:20:47.677Z,25.53
2022-08-24T17:23:14.239Z,25.45
2022-08-24T17:25:41.773Z,25.39
2022-08-24T17:28:11.355Z,25.37
2022-08-24T17:30:37.796Z,25.32
2022-08-24T17:33:05.157Z,25.29
2022-08-24T17:35:31.567Z,25.28
2022-08-24T17:37:59.792Z,25.25
2022-08-24T17:40:30.245Z,25.14
2022-08-24T17:42:56.931Z,24.99
2022-08-24T17:45:23.580Z,24.94
2022-08-24T17:47:52.305Z,24.84
2022-08-24T17:50:20.829Z,24.80
2022-08-24T17:52:47.438Z,24.68
2022-08-24T17:55:15.329Z,24.50
2022-08-24T17:57:44.587Z,24.40
2022-08-24T18:00:15.438Z,24.23
2022-08-24T18:02:42.399Z,24.20
2022-08-24T18:05:11.897Z,24.10
2022-08-24T18:07:52.621Z,23.99
2022-08-24T18:10:25.365Z,23.74
2022-08-24T18:12:52.069Z,23.59
2022-08-24T18:15:18.578Z,23.58
2022-08-24T18:17:51.538Z,23.52
2022-08-24T18:20:25.456Z,23.51
2022-08-24T18:22:53.884Z,23.43
2022-08-24T18:25:23.097Z,23.42
2022-08-24T18:27:51.808Z,23.33
2022-08-24T18:30:30.301Z,23.28
2022-08-24T18:32:57.896Z,23.22
2022-08-24T18:35:24.410Z,23.20
2022-08-24T18:37:50.821Z,22.96
2022-08-24T18:40:21.181Z,22.95
2022-08-24T18:42:50.452Z,22.92
2022-08-24T18:45:17.177Z,22.91
2022-08-24T18:47:43.634Z,22.77
2022-08-24T18:50:10.263Z,22.57
2022-08-24T18:52:40.543Z,22.48
2022-08-24T18:55:09.357Z,22.44
2022-08-24T18:57:35.986Z,22.32
2022-08-24T19:00:03.238Z,22.30
2022-08-24T19:02:35.493Z,22.29
2022-08-24T19:05:06.906Z,22.19
2022-08-24T19:07:37.003Z,22.12
2022-08-24T19:10:05.630Z,22.20
2022-08-24T19:12:36.038Z,22.23
2022-08-24T19:15:03.286Z,22.16
2022-08-24T19:17:29.703Z,22.05
2022-08-24T19:19:56.141Z,22.01
2022-08-24T19:22:23.297Z,21.79
2022-08-24T19:24:49.925Z,21.60
2022-08-24T19:27:17.055Z,21.60
2022-08-24T19:29:55.684Z,21.53
2022-08-24T19:32:25.839Z,21.52
2022-08-24T19:34:54.164Z,21.51
2022-08-24T19:37:21.536Z,21.49
2022-08-24T19:39:48.139Z,21.39
2022-08-24T19:42:17.684Z,21.30
2022-08-24T19:45:02.957Z,21.16
2022-08-24T19:47:34.315Z,21.08
2022-08-24T19:50:07.650Z,21.02
2022-08-24T19:52:35.987Z,21.00
2022-08-24T19:55:03.635Z,20.86
2022-08-24T19:58:08.559Z,21.00
2022-08-24T20:00:41.190Z,20.98
2022-08-24T20:03:08.840Z,20.88
2022-08-24T20:05:36.371Z,20.79
2022-08-24T20:08:03.595Z,20.67
2022-08-24T20:10:32.691Z,20.58
2022-08-24T20:13:00.075Z,20.47
2022-08-24T20:15:27.666Z,20.42
2022-08-24T20:17:56.647Z,20.32
2022-08-24T20:20:24.443Z,20.18
2022-08-24T20:22:51.095Z,20.13
2022-08-24T20:25:18.523Z,20.08
2022-08-24T20:27:45.603Z,20.02
2022-08-24T20:30:14.693Z,19.92
2022-08-24T20:32:41.478Z,19.96
2022-08-24T20:35:08.336Z,19.80
2022-08-24T20:37:34.865Z,19.74
2022-08-24T20:40:01.808Z,19.72
2022-08-24T20:42:31.426Z,19.77
2022-08-24T20:44:59.580Z,19.66
2022-08-24T20:47:26.414Z,19.61
2022-08-24T20:49:52.923Z,19.48
2022-08-24T20:52:19.275Z,19.18
2022-08-24T20:54:45.702Z,19.04
2022-08-24T20:57:16.781Z,19.18
2022-08-24T20:59:43.215Z,19.23
2022-08-24T21:02:09.622Z,19.17
2022-08-24T21:04:37.319Z,19.17
2022-08-24T21:07:04.281Z,19.17
2022-08-24T21:09:30.665Z,19.08
2022-08-24T21:11:57.046Z,19.11
2022-08-24T21:14:23.422Z,19.13
2022-08-24T21:16:49.918Z,19.21
2022-08-24T21:19:17.378Z,19.15
2022-08-24T21:21:45.177Z,19.04
2022-08-24T21:24:11.582Z,18.97
2022-08-24T21:26:38.855Z,19.02
2022-08-24T21:29:06.906Z,19.00
2022-08-24T21:31:33.545Z,19.00
2022-08-24T21:34:18.508Z,19.08
2022-08-24T21:36:47.530Z,18.79
2022-08-24T21:39:13.937Z,18.83
2022-08-24T21:41:41.140Z,18.80
2022-08-24T21:44:07.577Z,18.61
2022-08-24T21:46:36.856Z,18.47
2022-08-24T21:49:03.916Z,18.58
2022-08-24T21:51:30.366Z,18.74
2022-08-24T21:53:56.968Z,18.81
2022-08-24T21:56:29.162Z,18.79
2022-08-24T21:58:55.509Z,18.73
2022-08-24T22:01:22.017Z,18.73
2022-08-24T22:03:48.725Z,18.70
2022-08-24T22:06:15.587Z,18.71
2022-08-24T22:08:43.342Z,18.76
2022-08-24T22:11:13.046Z,18.77
2022-08-24T22:13:40.206Z,18.75
2022-08-24T22:16:07.714Z,18.76
2022-08-24T22:18:35.394Z,18.77
2022-08-24T22:21:07.632Z,18.77
2022-08-24T22:23:34.698Z,18.78
2022-08-24T22:26:01.409Z,18.74
2022-08-24T22:28:27.777Z,18.76
2022-08-24T22:30:54.328Z,18.76
2022-08-24T22:33:20.753Z,18.68
2022-08-24T22:35:47.157Z,18.76
2022-08-24T22:38:13.508Z,18.81
2022-08-24T22:40:39.975Z,18.81
2022-08-24T22:43:06.504Z,18.76
2022-08-24T22:45:33.084Z,18.78
2022-08-24T22:47:59.462Z,18.81
2022-08-24T22:50:25.972Z,18.82
2022-08-24T22:52:53.568Z,18.81
2022-08-24T22:55:20.118Z,18.82
2022-08-24T22:57:51.436Z,18.81
2022-08-24T23:00:18.416Z,18.80
2022-08-24T23:02:44.831Z,18.81
2022-08-24T23:05:11.298Z,18.75
2022-08-24T23:07:37.731Z,18.74
2022-08-24T23:10:04.964Z,18.72
2022-08-24T23:12:33.014Z,18.68
2022-08-24T23:14:59.778Z,18.70
2022-08-24T23:17:26.166Z,18.65
2022-08-24T23:20:04.737Z,18.64
2022-08-24T23:22:38.738Z,18.58
2022-08-24T23:25:11.489Z,18.57
2022-08-24T23:27:38.986Z,18.54
2022-08-24T23:30:12.828Z,18.53
2022-08-24T23:32:39.904Z,18.56
2022-08-24T23:35:06.738Z,18.57
2022-08-24T23:37:33.306Z,18.54
2022-08-24T23:39:59.962Z,18.55
2022-08-24T23:42:26.446Z,18.60
2022-08-24T23:44:52.967Z,18.59
2022-08-24T23:47:20.126Z,18.49
2022-08-24T23:49:46.706Z,18.51
2022-08-24T23:52:28.596Z,18.46
2022-08-24T23:55:20.379Z,18.36
2022-08-24T23:57:45.201Z,18.37
